Ventnor City, NJ

1:53 AM EDT on September 15, 2014 (GMT -0400)
Cape May County | Change Station
CLOSE
Current Station
Airport
Location: Wildwood,
Elevation: 23 ft
Nearby Weather Stations

Elev 23 ft 39.01 °N, 74.91 °W | Updated 18 minutes ago

Clear
Clear
54 °F
Feels Like 54 °F
N
0
Wind Variable Wind from North

Today
High -- | Low -- °F
--% Chance of Precip.
Yesterday
High -- | Low -- °F
Precip. -- in
6:39 AM 7:06 PM
Waning Gibbous, 58% visible
Pressure 30.22 in
Visibility 10.0 miles
Clouds Scattered Clouds 3600 ft
Dew Point 48 °F
Humidity 82%
Rainfall 0.00 in
Snow Depth Not available.
UV 0 out of 12
Pollen 3.40 out of 12
Air Quality Not available.
Flu Activity Not available.
METAR KWWD 150535Z AUTO 00000KT 10SM SCT036 12/09 A3022 RMK AO1

More Conditions Fewer Conditions

Pressure 30.22 in
Visibility 10.0 miles
Clouds Scattered Clouds 3600 ft
Dew Point 48 °F
Humidity 82%
Rainfall 0.00 in
Snow Depth Not available.
UV 0 out of 12
Pollen 3.40 out of 12
Air Quality Not available.
Flu Activity Not available.
METAR KWWD 150535Z AUTO 00000KT 10SM SCT036 12/09 A3022 RMK AO1

More Conditions Fewer Conditions

10-Day Weather Forecast

Almanac

Astronomy

Sep. 15, 2014 Rise Set
Actual Time 6:39 AM EDT 7:06 PM EDT
Civil Twilight 6:12 AM EDT 7:33 PM EDT
Nautical Twilight 5:40 AM EDT 8:04 PM EDT
Astronomical Twilight 5:08 AM EDT 8:37 PM EDT
Moon 11:49 PM EDT 1:35 PM EDT
Length of Visible Light 13h 21m
Length of Day
12h 27m
Tomorrow will be 2m 32s shorter.
Waning Gibbous, 58% of the Moon is Illuminated
Today
Waning Gibbous
Sep 15
Last Quarter
Sep 24
New
Oct 1
First Quarter
Oct 8
Full

Today's Extremes

State Highs State Lows

Community

WunderPhotos

Upload Photos

1,753,416 photos uploaded!

WunderBlogs® & News

Nearby

Snow Depth

Station Depth Elevation
No new snow has been reported.

Earthquake Activity

City Distance Mag. Time & Date
No recent earthquake activity has been reported nearby.
Minimum magnitude displayed is 2.5.

Coastal Water Temperatures

Place Temperature
No Stations Reporting

Nearby Weather Stations